Gainesville, FL

4:42 PM EDT on September 21, 2014 (GMT -0400)
Keystone Airpark, Keystone He | Change Station
CLOSE
Current Station
Airport
Location: Keystone Airpark, Keystone He,
Elevation: 197 ft
Nearby Weather Stations

Elev 197 ft 29.84 °N, 82.05 °W | Updated 7 minutes ago

Clear
Clear
88 °F
Feels Like 86 °F
N
4
Wind Variable Wind from SE
Gusts 2 mph

Today
High -- | Low -- °F
--% Chance of Precip.
Yesterday
High -- | Low -- °F
Precip. -- in
7:17 AM 7:27 PM
Waning Crescent, 5% visible
Pressure 29.96 in
Visibility 10.0 miles
Clouds
Heat Index 86 °F
Dew Point 54 °F
Humidity 31%
Rainfall 0.00 in
Snow Depth Not available.
UV Not available.
Pollen 7.20 out of 12
Air Quality Not available.
Flu Activity Not available.
METAR K42J 212035Z AUTO 14003KT 10SM 31/12 A2996 RMK AO1 TSNO

More Conditions Fewer Conditions

Pressure 29.96 in
Visibility 10.0 miles
Clouds
Heat Index 86 °F
Dew Point 54 °F
Humidity 31%
Rainfall 0.00 in
Snow Depth Not available.
UV Not available.
Pollen 7.20 out of 12
Air Quality Not available.
Flu Activity Not available.
METAR K42J 212035Z AUTO 14003KT 10SM 31/12 A2996 RMK AO1 TSNO

More Conditions Fewer Conditions

10-Day Weather Forecast

Almanac

Astronomy

Sep. 21, 2014 Rise Set
Actual Time 7:17 AM EDT 7:27 PM EDT
Civil Twilight 6:53 AM EDT 7:51 PM EDT
Nautical Twilight 6:25 AM EDT 8:18 PM EDT
Astronomical Twilight 5:57 AM EDT 8:46 PM EDT
Moon 4:58 AM EDT 5:56 PM EDT
Length of Visible Light 12h 57m
Length of Day
12h 09m
Tomorrow will be 1m 46s shorter.
Waning Crescent, 5% of the Moon is Illuminated
Today
Waning Crescent
Sep 24
New
Oct 1
First Quarter
Oct 8
Full
Oct 15
Last Quarter

Today's Extremes

State Highs State Lows

Community

WunderPhotos

Upload Photos

1,755,250 photos uploaded!

Nearby

Snow Depth

Station Depth Elevation
No new snow has been reported.

Earthquake Activity

City Distance Mag. Time & Date
No recent earthquake activity has been reported nearby.
Minimum magnitude displayed is 2.5.

Coastal Water Temperatures

Place Temperature
No Stations Reporting

Nearby Weather Stations